Air Resources Laboratory banner image
Air Resources Laboratory web site National Oceanic and Atmospheric Administration (NOAA)

fl metar


K40J 181755Z AUTO 23006KT 4SM BR OVC005 23/22 A3022 RMK AO2 T02250215 10226
 20205=
K40J 181815Z AUTO 22006KT 10SM OVC005 23/22 A3021 RMK AO2 T02300215=
K40J 181835Z AUTO 25008KT 10SM OVC005 23/21 A3021 RMK AO2 T02330212=
KAAF 181753Z AUTO 24011KT 10SM BKN017 OVC023 26/23 A3021 RMK AO2 SLP228
 T02560233 10261 20200 58005=
KAPF 181753Z 16006KT 10SM SCT030 28/19 A3019 RMK AO2 SLP221 T02780194 10278
 20172 58019 $=
KBKV 181753Z 27007KT 10SM SCT030 27/18 A3022 RMK AO2 SLP233 T02720183 10278
 20150 58015=
KBOW 181745Z 00000KT 10SM SCT036 26/18 A3023=
KCEW 181753Z AUTO 32006KT 10SM OVC007 22/20 A3021 RMK AO2 CIG 005V010 SLP228
 P0001 60001 T02220200 10222 20183 58003=
KCOF 181758Z AUTO 08005KT 10SM CLR 25/22 A3021 RMK AO2 SLP234 T02500218 10257
 20175 58013 $=
KCRG 181753Z 27009KT 10SM CLR 27/18 A3019 RMK AO2 SLP221 T02670183 10267 20144
 58021=
KCTY 181755Z AUTO 26007KT 220V290 10SM OVC021 26/20 A3025 RMK AO2 T02560203
 10258 20157=
KDAB 181753Z 25008KT 10SM SCT032 SCT043 SCT250 26/19 A3022 RMK AO2 SLP231
 T02610194 10267 20161 58018=
KDTS 181753Z 25005KT 10SM OVC005 24/21 A3020 RMK AO2 SLP224 60000 T02440211
 10250 20222 58005=
KEGI 181755Z 30007KT 10SM OVC009 23/21 A3019 RMK SLP223 60005 T02280210 10232
 20177 58004 $=
KEYW 181753Z 09010KT 10SM FEW025 26/23 A3019 RMK AO2 SLP222 T02610228 10272
 20228 58011 $=
KFLL 181753Z 11009KT 10SM SCT025 BKN250 26/21 A3020 RMK AO2 SLP226 6////
 T02610211 10267 20222 58012 $=
KFMY 181753Z 11004KT 10SM FEW034 28/19 A3020 RMK AO2 SLP227 T02830194 10283
 20172 58016=
KFPR 181753Z 09007KT 10SM CLR 27/21 A3021 RMK AO2 SLP230 T02720206 10278 20150
 58015=
KFXE 181753Z 10005KT 10SM SCT025 SCT150 27/21 A3021 RMK AO2 SLP231 T02670206
 10278 20189 58012=
KGIF 181753Z AUTO 35004KT 10SM CLR 27/19 A3023 RMK AO2 SLP236 T02720189 10272
 20178 58012=
KGNV 181753Z 22007KT 10SM OVC027 26/18 A3023 RMK AO2 SLP235 T02560183 10256
 20111 58019 $=
KHRT 181756Z 25010G14KT 10SM SCT007 SCT010 BKN014 BKN030 25/22 A3018 RMK AO2A
 CIG 009 RWY36 SLP222 60000 T02450216 10245 20204 58006 $=
KHST 181756Z AUTO 09010KT 10SM SCT023 27/23 A3020 RMK AO2 SLP230 T02690229
 10270 20183 58012=
KHWO 181753Z 14008KT 10SM BKN030 BKN036 BKN045 29/20 A3021 RMK AO2 SLP231
 T02890200 10289 20183 58014=
KISM 181756Z 00000KT 10SM SCT027 27/20 A3023 RMK AO2 SLP238 T02720200 10272
 20161 58017=
KJAX 181756Z 28009KT 10SM BKN023 BKN250 26/19 A3019 RMK AO2 SLP223 T02610189
 10272 20144 58021=
KLAL 181750Z 33004KT 10SM BKN033 27/18 A3023=
KLEE 181753Z 13004KT 10SM CLR 26/20 A3022 RMK AO2 SLP232 T02610200 10261 20167
 58018=
KMAI 181753Z AUTO 25006KT 10SM OVC013 24/22 A3018 RMK AO2 SLP218 60001
 T02390217 10244 20217 58008=
KMCF 181756Z 31003KT 10SM CLR 26/20 A3022 RMK AO2A SLP237 T02600201 58008 $=
KMCO 181753Z 30004KT 10SM SCT031 BKN250 27/18 A3022 RMK AO2 SLP231 T02720183
 10272 20172 58018=
KMIA 181753Z 13009KT 10SM BKN024 BKN300 29/21 A3020 RMK AO2 SLP228 T02890206
 10289 20206 58013=
KMLB 181753Z 07006KT 10SM BKN037 27/21 A3022 RMK AO2 SLP231 T02670206 10283
 20194 58013=
KMTH 181753Z AUTO 09007KT 10SM CLR 28/21 A3019 RMK AO2 SLP221 T02780211 10283
 20211 58011 $=
KNIP 181753Z 24006KT 10SM FEW027 SCT055 BKN250 26/19 A3020 RMK AO2 SLP220
 T02610189 10261 20183 58022 $=
KNPA 181756Z 26007KT 7SM BKN012 BKN029 24/21 A3019 RMK AO2 SLP225 60000
 T02440206 10244 20200 58003 $=
KNQX 181753Z 08010KT 10SM SCT022 OVC220 26/24 A3019 RMK AO2 SLP220 T02610239
 10272 20222 58011 $=
KNRB 181752Z 27007KT 10SM FEW025 SCT070 BKN250 26/18 A3019 RMK AO2 SLP221
 T02560183 10256 20150 58020=
KNSE 181756Z VRB03KT 6SM BR BKN005 BKN012 21/20 A3020 RMK AO2 SLP213 60000
 T02110200 10211 20183 58003 $=
KOCF 181751Z 27007KT 10SM SCT029 SCT050 27/19 A3021 RMK AO2 SLP233 T02720194
 10272 20122 58019=
KOPF 181753Z 15009KT 10SM BKN033 OVC044 28/21 A3021 RMK AO2 SLP229 T02830206
 10283 20183 58014=
KORL 181753Z 27008G14KT 10SM BKN033 BKN040 27/18 A3022 RMK AO2 SLP237 T02670183
 10278 20189 58016=
KPAM 181756Z 23008KT 1/2SM BR OVC002 23/22 A3020 RMK AO2A SLP230 T02290220
 10239 20204 58006 TSNO $=
KPBI 181753Z 13008KT 10SM SCT027 SCT060 SCT250 27/21 A3021 RMK AO2 SLP228
 T02670206 10272 20189 58015=
KPGD 181753Z 17004KT 10SM SCT030 28/18 A3022 RMK AO2 SLP235 T02780183 10283
 20161 58013=
KPIE 181753Z 07004KT 10SM SCT028 SCT032 25/20 A3022 RMK AO2 SLP234 T02500200
 10256 20172 58007=
KPMP 181753Z 13006KT 10SM FEW029 SCT250 27/22 A3021 RMK AO2 SLP230 T02720217
 10278 20211 58012=
KPNS 181753Z 28006KT 10SM BKN007 BKN015 BKN034 25/21 A3019 RMK AO2 SLP226 60000
 T02500206 10250 20200 58003=
KRSW 181753Z 11005KT 10SM FEW020 27/19 A3020 RMK AO2 SLP225 60000 T02720194
 10272 20167 58016=
KSFB 181753Z 28006KT 10SM SCT025 SCT036 26/18 A3022 RMK AO2 SLP231 T02610183
 10272 20167 58017=
KSGJ 181756Z VRB06KT 10SM FEW028 26/19 A3020 RMK AO2 SLP226 T02610194 10261
 20139 58023=
KSPG 181753Z 21007KT 10SM FEW025 25/19 A3021 RMK AO2 SLP228 T02500194 10250
 20178 58009=
KSRQ 181753Z 24007KT 10SM CLR 26/21 A3021 RMK AO2 SLP228 T02560211 10256 20161
 58007=
KSUA 181750Z VRB04KT 7SM SCT025 28/21 A3022=
KTIX 181750Z 28006KT 7SM BKN027 26/20 A3022=
KTLH 181753Z 26010KT 10SM BKN018 OVC023 26/22 A3018 RMK AO2 SLP220 T02610217
 10261 20206 58012=
KTMB 181753Z 11006KT 10SM CLR 26/19 A3020 RMK AO2 SLP226 T02610194 10278 20167
 58013=
KTPA 181753Z 24004KT 10SM FEW027 SCT250 26/19 A3023 RMK AO2 SLP235 T02610194
 10272 20194 58009=
KTTS 181758Z AUTO 23003KT 10SM CLR 27/22 A3021 RMK AO2 SLP234 T02660224 10267
 20156 58016 $=
KVPS 181755Z 26005KT 7SM SCT011 BKN250 25/22 A3019 RMK AO2A SLP229 T02460217
 10246 20202 58006 $=
KVQQ 181750Z 28008KT 10SM OVC048 27/20 A3019=
KVRB 181753Z 06007KT 10SM FEW026 27/20 A3022 RMK AO2 SLP231 T02670200 10278
 20161 58014 $=
KXMR 181758Z AUTO 24005KT 10SM CLR 27/19 A3021 RMK AO2 SLP233 T02660191 10268
 20154 58014 $=